Time;durP1;ratioP1;P1;durP2;ratioP2;P2;SDS_P1;SDS_P2;PMS_P1;PMS_P2;Temp;Humidity;BMP_temperature;BMP_pressure;BME280_temperature;BME280_humidity;BME280_pressure;Samples;Min_cycle;Max_cycle;Signal;HPM_P1;HPM_P2
2023/08/13 00:00:16;;;;;;;14.63;6.80;;;16.90;99.90;;;;;;5029917;28;20067;-57
2023/08/13 00:02:45;;;;;;;12.65;5.25;;;16.90;99.90;;;;;;5025899;28;20029;-57
2023/08/13 00:05:10;;;;;;;9.07;6.05;;;17.10;99.90;;;;;;5029438;28;20517;-56
2023/08/13 00:07:36;;;;;;;18.00;6.25;;;17.10;99.90;;;;;;5033806;28;20057;-54
2023/08/13 00:10:03;;;;;;;17.67;6.47;;;17.10;99.90;;;;;;5030204;28;20037;-60
2023/08/13 00:12:28;;;;;;;19.35;6.65;;;17.00;99.90;;;;;;5029357;28;20101;-57
2023/08/13 00:14:54;;;;;;;17.60;6.15;;;17.00;99.90;;;;;;5029607;28;20471;-57
2023/08/13 00:17:19;;;;;;;15.68;5.88;;;16.90;99.90;;;;;;5028731;28;20522;-55
2023/08/13 00:19:45;;;;;;;9.60;6.38;;;16.90;99.90;;;;;;5032752;28;20017;-57
2023/08/13 00:22:11;;;;;;;15.18;6.00;;;16.90;99.90;;;;;;5029802;28;20044;-57
2023/08/13 00:24:36;;;;;;;18.88;7.13;;;16.90;99.90;;;;;;5033542;28;20028;-58
2023/08/13 00:27:02;;;;;;;12.82;5.35;;;16.90;99.90;;;;;;5030643;28;20121;-58
2023/08/13 00:29:28;;;;;;;16.40;6.50;;;16.90;99.90;;;;;;5027868;28;20033;-60
2023/08/13 00:31:55;;;;;;;14.40;5.70;;;16.90;99.90;;;;;;5026805;28;20063;-58
2023/08/13 00:34:21;;;;;;;12.35;5.22;;;16.90;99.90;;;;;;5031025;28;20035;-60
2023/08/13 00:36:46;;;;;;;15.93;7.38;;;17.00;99.90;;;;;;5028807;28;20654;-56
2023/08/13 00:39:12;;;;;;;11.00;4.80;;;17.00;99.90;;;;;;5029321;28;20036;-57
2023/08/13 00:41:38;;;;;;;12.45;5.10;;;17.00;99.90;;;;;;5034483;28;20029;-57
2023/08/13 00:44:03;;;;;;;6.28;4.38;;;17.00;99.90;;;;;;5032343;28;20120;-59
2023/08/13 00:46:29;;;;;;;8.93;5.45;;;17.00;99.90;;;;;;5026914;28;20535;-59
2023/08/13 00:48:58;;;;;;;10.57;4.78;;;17.00;99.90;;;;;;5030459;28;20396;-58
2023/08/13 00:51:24;;;;;;;9.48;4.55;;;17.00;99.90;;;;;;5027191;28;20593;-60
2023/08/13 00:53:50;;;;;;;10.00;5.25;;;17.00;99.90;;;;;;5031233;28;20052;-59
2023/08/13 00:56:16;;;;;;;14.63;5.07;;;17.00;99.90;;;;;;5027775;28;20674;-57
2023/08/13 00:58:43;;;;;;;8.25;4.70;;;17.10;99.90;;;;;;5031102;28;20092;-60
2023/08/13 01:01:09;;;;;;;9.88;4.65;;;17.10;99.90;;;;;;5023770;28;20033;-60
2023/08/13 01:03:36;;;;;;;7.60;4.57;;;17.20;99.90;;;;;;5026894;28;20021;-59
2023/08/13 01:06:14;;;;;;;14.82;5.03;;;17.10;99.90;;;;;;5029154;28;20076;-55
2023/08/13 01:08:50;;;;;;;12.27;5.00;;;17.10;99.90;;;;;;5027228;28;20025;-59
2023/08/13 01:11:48;;;;;;;11.38;4.75;;;17.20;99.90;;;;;;5028131;28;20041;-59
2023/08/13 01:14:31;;;;;;;11.10;5.05;;;17.10;99.90;;;;;;5031053;28;20116;-60
2023/08/13 01:16:59;;;;;;;10.32;5.03;;;17.10;99.90;;;;;;5026439;28;20040;-57
2023/08/13 01:19:25;;;;;;;8.63;4.50;;;17.10;99.90;;;;;;5029315;28;20346;-60
2023/08/13 01:21:50;;;;;;;10.95;4.88;;;17.10;99.90;;;;;;5030138;28;20083;-60
2023/08/13 01:24:16;;;;;;;10.80;5.55;;;17.00;99.90;;;;;;5032522;28;20025;-57
2023/08/13 01:27:27;;;;;;;14.68;5.20;;;17.00;99.90;;;;;;5029192;28;20033;-59
2023/08/13 01:30:01;;;;;;;11.85;6.25;;;16.90;99.90;;;;;;5009614;28;20044;-60
2023/08/13 01:32:33;;;;;;;16.75;6.25;;;16.90;99.90;;;;;;5025763;28;20030;-57
2023/08/13 01:34:59;;;;;;;14.50;6.72;;;16.90;99.90;;;;;;5034079;28;20037;-62
2023/08/13 01:37:25;;;;;;;16.50;7.45;;;16.80;99.90;;;;;;5029523;28;20037;-58
2023/08/13 01:39:51;;;;;;;18.23;8.73;;;16.80;99.90;;;;;;5030896;28;20049;-57
2023/08/13 01:42:17;;;;;;;18.33;9.55;;;16.80;99.90;;;;;;5029473;28;20397;-58
2023/08/13 01:44:43;;;;;;;13.93;8.75;;;16.80;99.90;;;;;;5030450;28;20030;-57
2023/08/13 01:47:08;;;;;;;18.63;7.80;;;16.90;99.90;;;;;;5031002;28;20025;-59
2023/08/13 01:49:34;;;;;;;14.57;8.10;;;16.90;99.90;;;;;;5031070;28;20060;-54
2023/08/13 01:52:00;;;;;;;24.80;8.40;;;16.90;99.90;;;;;;5032286;28;20025;-59
2023/08/13 01:54:25;;;;;;;21.05;7.05;;;16.90;99.90;;;;;;5031793;28;20029;-61
2023/08/13 01:56:51;;;;;;;12.27;6.13;;;16.90;99.90;;;;;;5036607;28;20104;-57
2023/08/13 01:59:17;;;;;;;12.93;6.25;;;16.80;99.90;;;;;;5027636;28;20119;-60
2023/08/13 02:01:43;;;;;;;11.75;6.18;;;16.80;99.90;;;;;;5037313;28;20543;-60
2023/08/13 02:04:08;;;;;;;11.40;6.22;;;16.70;99.90;;;;;;5031801;28;20064;-59
2023/08/13 02:06:35;;;;;;;13.50;5.47;;;16.70;99.90;;;;;;5035231;28;20017;-60
2023/08/13 02:09:02;;;;;;;18.25;5.35;;;16.70;99.90;;;;;;5033372;28;20030;-55
2023/08/13 02:11:27;;;;;;;14.55;6.43;;;16.60;99.90;;;;;;5035682;28;20029;-56
2023/08/13 02:13:53;;;;;;;13.73;6.70;;;16.60;99.90;;;;;;5030393;28;20025;-59
2023/08/13 02:16:18;;;;;;;21.98;6.30;;;16.60;99.90;;;;;;5034834;28;20058;-56
2023/08/13 02:18:44;;;;;;;11.27;5.88;;;16.60;99.90;;;;;;5033219;28;20013;-58
2023/08/13 02:21:09;;;;;;;16.67;6.05;;;16.50;99.90;;;;;;5032617;28;20021;-58
2023/08/13 02:23:35;;;;;;;13.52;6.50;;;16.50;99.90;;;;;;5033312;28;20431;-58
2023/08/13 02:26:00;;;;;;;12.35;6.03;;;16.50;99.90;;;;;;5032347;28;20513;-58
2023/08/13 02:28:26;;;;;;;11.68;5.93;;;16.40;99.90;;;;;;5031353;28;20529;-59
2023/08/13 02:30:52;;;;;;;13.98;5.88;;;16.40;99.90;;;;;;5030868;28;20386;-59
2023/08/13 02:33:17;;;;;;;17.65;5.70;;;16.40;99.90;;;;;;5032750;28;20037;-62
2023/08/13 02:35:43;;;;;;;13.15;5.72;;;16.40;99.90;;;;;;5036949;28;20022;-61
2023/08/13 02:38:09;;;;;;;14.63;5.68;;;16.30;99.90;;;;;;5032073;28;20033;-59
2023/08/13 02:40:35;;;;;;;10.18;5.80;;;16.30;99.90;;;;;;5032133;28;20038;-59
2023/08/13 02:43:02;;;;;;;18.17;5.97;;;16.30;99.90;;;;;;5034178;28;20029;-59
2023/08/13 02:45:27;;;;;;;17.00;6.10;;;16.20;99.90;;;;;;5030760;28;20091;-58
2023/08/13 02:47:53;;;;;;;14.23;6.38;;;16.20;99.90;;;;;;5038526;28;20025;-59
2023/08/13 02:50:18;;;;;;;15.02;6.55;;;16.20;99.90;;;;;;5032479;28;20034;-62
2023/08/13 02:52:44;;;;;;;13.18;6.07;;;16.10;99.90;;;;;;5030723;28;20021;-60
2023/08/13 02:55:09;;;;;;;20.38;6.18;;;16.10;99.90;;;;;;5032453;28;20489;-60
2023/08/13 02:57:35;;;;;;;15.65;6.57;;;16.10;99.90;;;;;;5031370;28;20510;-61
2023/08/13 03:00:00;;;;;;;19.67;5.70;;;16.00;99.90;;;;;;5029004;28;20052;-61
2023/08/13 03:02:26;;;;;;;16.13;5.85;;;16.00;99.90;;;;;;5030723;28;20048;-60
2023/08/13 03:04:52;;;;;;;19.75;6.90;;;15.90;99.90;;;;;;5034867;28;20075;-60
2023/08/13 03:07:17;;;;;;;15.15;5.97;;;16.00;99.90;;;;;;5034485;28;20572;-57
2023/08/13 03:09:43;;;;;;;13.73;6.35;;;15.90;99.90;;;;;;5029688;28;20453;-61
2023/08/13 03:12:08;;;;;;;15.60;5.55;;;15.90;99.90;;;;;;5031501;28;20529;-59
2023/08/13 03:14:34;;;;;;;16.23;5.90;;;15.90;99.90;;;;;;5035790;28;20033;-59
2023/08/13 03:16:59;;;;;;;14.38;5.45;;;16.00;99.90;;;;;;5032183;28;20029;-57
2023/08/13 03:19:25;;;;;;;19.30;5.60;;;16.00;99.90;;;;;;5029726;28;20109;-61
2023/08/13 03:21:50;;;;;;;9.52;5.43;;;15.90;99.90;;;;;;5028573;28;20029;-60
2023/08/13 03:24:16;;;;;;;16.55;5.63;;;15.80;99.90;;;;;;5032170;28;20084;-62
2023/08/13 03:26:41;;;;;;;10.70;5.07;;;15.80;99.90;;;;;;5030264;28;20034;-60
2023/08/13 03:29:07;;;;;;;7.40;5.13;;;15.80;99.90;;;;;;5031102;28;20060;-59
2023/08/13 03:31:32;;;;;;;16.35;5.70;;;15.80;99.90;;;;;;5028640;28;20041;-59
2023/08/13 03:33:58;;;;;;;20.85;4.93;;;15.80;99.90;;;;;;5030698;28;20021;-61
2023/08/13 03:36:24;;;;;;;13.27;4.88;;;15.80;99.90;;;;;;5037298;28;20722;-60
2023/08/13 03:38:49;;;;;;;20.25;5.88;;;15.80;99.90;;;;;;5027195;28;20045;-60
2023/08/13 03:41:15;;;;;;;10.82;5.22;;;15.70;99.90;;;;;;5028489;28;20033;-60
2023/08/13 03:43:40;;;;;;;9.98;4.38;;;15.70;99.90;;;;;;5034459;28;20075;-60
2023/08/13 03:46:06;;;;;;;9.70;4.70;;;15.60;99.90;;;;;;5029424;28;20033;-56
2023/08/13 03:48:32;;;;;;;11.57;4.63;;;15.60;99.90;;;;;;5030557;28;20067;-59
2023/08/13 03:50:57;;;;;;;21.33;5.15;;;15.60;99.90;;;;;;5032959;28;20028;-59
2023/08/13 03:53:24;;;;;;;16.25;4.90;;;15.60;99.90;;;;;;5031808;28;20038;-60
2023/08/13 03:55:50;;;;;;;13.15;5.05;;;15.50;99.90;;;;;;5031737;28;20097;-60
2023/08/13 03:58:16;;;;;;;20.60;4.93;;;15.50;99.90;;;;;;5031592;28;20083;-58
2023/08/13 04:00:42;;;;;;;14.85;5.38;;;15.50;99.90;;;;;;5030921;28;20033;-59
2023/08/13 04:03:09;;;;;;;17.75;6.25;;;15.40;99.90;;;;;;5030675;28;20039;-59
2023/08/13 04:05:35;;;;;;;18.38;5.35;;;15.40;99.90;;;;;;5030772;28;20485;-61
2023/08/13 04:08:01;;;;;;;15.75;5.85;;;15.40;99.90;;;;;;5028884;28;20041;-59
2023/08/13 04:10:27;;;;;;;21.58;5.38;;;15.40;99.90;;;;;;5031670;28;20028;-59
2023/08/13 04:12:53;;;;;;;15.38;4.53;;;15.40;99.90;;;;;;5027254;28;20048;-60
2023/08/13 04:15:18;;;;;;;11.10;4.57;;;15.40;99.90;;;;;;5027753;28;20055;-62
2023/08/13 04:17:44;;;;;;;8.65;4.85;;;15.40;99.90;;;;;;5030676;28;20505;-60
2023/08/13 04:20:11;;;;;;;16.83;5.10;;;15.40;99.90;;;;;;5030977;28;20442;-61
2023/08/13 04:22:36;;;;;;;18.15;5.15;;;15.30;99.90;;;;;;5033242;28;20024;-59
2023/08/13 04:25:02;;;;;;;10.20;5.30;;;15.40;99.90;;;;;;5026933;28;20044;-60
2023/08/13 04:27:27;;;;;;;16.00;5.13;;;15.40;99.90;;;;;;5029826;28;20500;-59
2023/08/13 04:29:53;;;;;;;13.05;5.47;;;15.40;99.90;;;;;;5029737;28;20029;-59
2023/08/13 04:32:18;;;;;;;15.60;5.75;;;15.40;99.90;;;;;;5025833;28;20033;-57
2023/08/13 04:34:44;;;;;;;12.02;5.32;;;15.40;99.90;;;;;;5032352;28;20029;-57
2023/08/13 04:37:09;;;;;;;21.08;5.47;;;15.40;99.90;;;;;;5028321;28;20086;-60
2023/08/13 04:39:35;;;;;;;10.65;5.53;;;15.40;99.90;;;;;;5035438;28;20103;-58
2023/08/13 04:42:01;;;;;;;17.45;5.78;;;15.50;99.90;;;;;;5029859;28;20033;-58
2023/08/13 04:44:26;;;;;;;14.23;5.97;;;15.50;99.90;;;;;;5032044;28;20508;-60
2023/08/13 04:46:52;;;;;;;7.05;4.82;;;15.50;99.90;;;;;;5034067;28;20417;-61
2023/08/13 04:49:18;;;;;;;14.68;5.68;;;15.50;99.90;;;;;;5031881;28;20421;-61
2023/08/13 04:51:43;;;;;;;12.00;5.25;;;15.50;99.90;;;;;;5036056;28;20044;-62
2023/08/13 04:54:09;;;;;;;9.32;4.80;;;15.50;99.90;;;;;;5029747;28;20021;-59
2023/08/13 04:56:34;;;;;;;17.17;5.85;;;15.50;99.90;;;;;;5028156;28;20037;-59
2023/08/13 04:59:00;;;;;;;15.57;5.65;;;15.50;99.90;;;;;;5035931;28;20132;-56
2023/08/13 05:01:25;;;;;;;17.65;5.88;;;15.50;99.90;;;;;;5028006;28;20026;-57
2023/08/13 05:03:51;;;;;;;14.55;5.43;;;15.60;99.90;;;;;;5029720;28;20053;-59
2023/08/13 05:06:17;;;;;;;16.58;6.43;;;15.60;99.90;;;;;;5028848;28;20522;-58
2023/08/13 05:08:42;;;;;;;12.13;5.68;;;15.60;99.90;;;;;;5028542;28;20397;-59
2023/08/13 05:11:08;;;;;;;13.88;5.35;;;15.60;99.90;;;;;;5026857;28;20030;-56
2023/08/13 05:13:34;;;;;;;24.52;6.47;;;15.70;99.90;;;;;;5034160;28;20026;-58
2023/08/13 05:15:59;;;;;;;14.55;6.18;;;15.80;99.90;;;;;;5035359;28;20084;-58
2023/08/13 05:18:25;;;;;;;17.15;6.10;;;15.80;99.90;;;;;;5038580;28;20060;-59
2023/08/13 05:20:50;;;;;;;14.05;5.90;;;15.80;99.90;;;;;;5033865;28;21789;-60
2023/08/13 05:23:16;;;;;;;16.63;6.63;;;15.80;99.90;;;;;;5035169;28;20389;-60
2023/08/13 05:25:42;;;;;;;12.80;6.05;;;15.90;99.90;;;;;;5040270;28;20471;-59
2023/08/13 05:28:08;;;;;;;10.40;5.80;;;15.90;99.90;;;;;;5033535;28;20022;-59
2023/08/13 05:30:37;;;;;;;13.27;5.97;;;15.90;99.90;;;;;;5032949;28;21532;-55
2023/08/13 05:33:03;;;;;;;12.90;5.18;;;16.00;99.90;;;;;;5038645;28;20464;-59
2023/08/13 05:35:29;;;;;;;15.43;5.32;;;16.00;99.90;;;;;;5038287;28;20037;-56
2023/08/13 05:37:54;;;;;;;11.23;5.82;;;16.00;99.90;;;;;;5030347;28;20029;-61
2023/08/13 05:40:20;;;;;;;18.55;6.20;;;16.00;99.90;;;;;;5031821;28;20029;-59
2023/08/13 05:42:46;;;;;;;16.30;6.03;;;16.10;99.90;;;;;;5031332;28;20460;-59
2023/08/13 05:45:12;;;;;;;13.90;5.68;;;16.20;99.90;;;;;;5032965;28;20033;-58
2023/08/13 05:47:37;;;;;;;9.18;5.78;;;16.20;99.90;;;;;;5031743;28;20468;-60
2023/08/13 05:50:04;;;;;;;16.48;6.15;;;16.30;99.90;;;;;;5032479;28;20484;-59
2023/08/13 05:52:29;;;;;;;12.77;7.00;;;16.40;99.90;;;;;;5031429;28;20096;-57
2023/08/13 05:54:55;;;;;;;12.48;6.75;;;16.50;99.90;;;;;;5033787;28;20693;-58
2023/08/13 05:57:21;;;;;;;20.23;6.78;;;16.60;99.90;;;;;;5032402;28;20037;-55
2023/08/13 05:59:47;;;;;;;17.67;6.20;;;16.70;99.90;;;;;;5032471;28;20048;-58
2023/08/13 06:02:12;;;;;;;13.50;6.07;;;16.80;99.90;;;;;;5032022;28;20450;-58
2023/08/13 06:04:38;;;;;;;10.68;5.72;;;16.90;99.90;;;;;;5028705;28;20056;-57
2023/08/13 06:07:03;;;;;;;12.27;5.53;;;16.90;99.90;;;;;;5033784;28;20100;-57
2023/08/13 06:09:30;;;;;;;8.02;5.55;;;17.00;99.90;;;;;;5033680;28;20034;-59
2023/08/13 06:11:55;;;;;;;13.13;5.60;;;17.10;99.90;;;;;;5031700;28;20025;-58
2023/08/13 06:14:21;;;;;;;14.35;5.53;;;17.20;99.90;;;;;;5035448;28;20115;-59
2023/08/13 06:16:46;;;;;;;12.77;6.07;;;17.20;99.90;;;;;;5028573;28;20346;-57
2023/08/13 06:19:12;;;;;;;8.48;5.05;;;17.30;99.90;;;;;;5030380;28;20036;-59
2023/08/13 06:21:38;;;;;;;14.85;5.75;;;17.40;99.90;;;;;;5027717;28;20033;-56
2023/08/13 06:24:05;;;;;;;14.45;5.82;;;17.50;99.90;;;;;;5028846;28;20038;-57
2023/08/13 06:26:34;;;;;;;16.17;5.22;;;17.60;99.90;;;;;;5033786;28;20057;-58
2023/08/13 06:28:59;;;;;;;11.98;5.63;;;17.60;99.90;;;;;;5035137;28;20029;-60
2023/08/13 06:31:25;;;;;;;12.90;5.22;;;17.60;99.90;;;;;;5032975;28;20179;-59
2023/08/13 06:33:50;;;;;;;13.63;5.63;;;17.70;99.90;;;;;;5035235;28;20456;-54
2023/08/13 06:36:16;;;;;;;10.93;5.20;;;17.80;99.90;;;;;;5031412;28;20037;-56
2023/08/13 06:38:42;;;;;;;16.77;5.45;;;17.80;99.90;;;;;;5032244;28;20033;-60
2023/08/13 06:41:08;;;;;;;18.42;5.22;;;18.00;99.90;;;;;;5032439;28;20033;-60
2023/08/13 06:43:33;;;;;;;13.90;5.40;;;18.00;99.90;;;;;;5040818;28;20068;-60
2023/08/13 06:46:00;;;;;;;9.70;4.57;;;18.10;99.90;;;;;;5033784;28;20114;-59
2023/08/13 06:48:32;;;;;;;15.77;5.03;;;18.20;99.90;;;;;;5039012;28;20033;-61
2023/08/13 06:50:58;;;;;;;13.68;5.05;;;18.20;99.90;;;;;;5030940;28;20045;-57
2023/08/13 06:53:24;;;;;;;9.95;3.75;;;18.30;99.90;;;;;;5032641;28;20492;-59
2023/08/13 06:55:50;;;;;;;11.50;4.18;;;18.40;99.90;;;;;;5037433;28;20039;-61
2023/08/13 06:58:16;;;;;;;13.00;4.20;;;18.40;99.90;;;;;;5032960;28;20032;-56
2023/08/13 07:00:43;;;;;;;14.43;3.83;;;18.50;99.90;;;;;;5028641;28;20460;-59
2023/08/13 07:03:09;;;;;;;12.55;3.83;;;18.50;99.90;;;;;;5029989;28;20041;-58
2023/08/13 07:05:40;;;;;;;12.02;3.85;;;18.60;99.90;;;;;;5020104;28;20037;-57
2023/08/13 07:08:06;;;;;;;14.18;4.03;;;18.70;99.90;;;;;;5028866;28;20091;-59
2023/08/13 07:10:32;;;;;;;14.40;3.90;;;18.90;99.90;;;;;;5030257;28;20026;-58
2023/08/13 07:12:58;;;;;;;8.23;4.03;;;18.90;99.90;;;;;;5028655;28;20048;-60
2023/08/13 07:15:23;;;;;;;8.95;3.83;;;19.00;99.90;;;;;;5029839;28;20067;-56
2023/08/13 07:17:49;;;;;;;11.40;3.65;;;19.10;99.90;;;;;;5029342;28;20025;-58
2023/08/13 07:20:15;;;;;;;9.88;3.40;;;19.10;99.90;;;;;;5024174;28;20060;-59
2023/08/13 07:22:44;;;;;;;11.35;3.47;;;19.10;99.90;;;;;;5023314;28;20029;-57
2023/08/13 07:25:11;;;;;;;7.82;3.28;;;19.10;99.90;;;;;;5021237;28;20033;-54
2023/08/13 07:27:41;;;;;;;16.13;3.75;;;19.20;99.90;;;;;;5028983;28;20108;-60
2023/08/13 07:30:08;;;;;;;10.50;3.67;;;19.30;99.90;;;;;;5029804;28;20029;-58
2023/08/13 07:32:38;;;;;;;14.85;3.90;;;19.30;99.90;;;;;;5030512;28;20095;-56
2023/08/13 07:35:06;;;;;;;11.88;3.22;;;19.40;99.90;;;;;;5035981;28;20036;-60
2023/08/13 07:37:32;;;;;;;5.32;2.30;;;19.40;99.90;;;;;;5024995;28;20025;-60
2023/08/13 07:39:58;;;;;;;10.77;3.40;;;19.50;99.90;;;;;;5029499;28;20038;-57
2023/08/13 07:42:24;;;;;;;13.77;3.30;;;19.50;99.90;;;;;;5032762;28;20032;-58
2023/08/13 07:44:49;;;;;;;8.73;3.08;;;19.60;99.90;;;;;;5035148;28;20030;-58
2023/08/13 07:47:15;;;;;;;9.02;3.08;;;19.70;99.90;;;;;;5031539;28;20095;-59
2023/08/13 07:49:40;;;;;;;8.85;3.00;;;19.80;99.90;;;;;;5029142;28;20028;-59
2023/08/13 07:52:06;;;;;;;12.75;2.95;;;19.90;99.90;;;;;;5029031;28;20025;-56
2023/08/13 07:54:32;;;;;;;11.77;2.70;;;19.90;99.90;;;;;;5029825;28;20046;-59
2023/08/13 07:56:57;;;;;;;16.42;3.65;;;20.00;99.90;;;;;;5032778;28;20021;-59
2023/08/13 07:59:23;;;;;;;9.95;3.20;;;20.00;99.90;;;;;;5029245;28;20039;-60
2023/08/13 08:01:49;;;;;;;12.88;3.08;;;20.00;99.90;;;;;;5032371;28;20029;-56
2023/08/13 08:04:15;;;;;;;16.88;3.83;;;20.00;99.90;;;;;;5029115;28;20029;-56
2023/08/13 08:06:40;;;;;;;7.57;3.05;;;20.10;99.90;;;;;;5030661;28;20044;-59
2023/08/13 08:09:06;;;;;;;9.73;2.97;;;20.20;99.90;;;;;;5029792;28;20025;-57
2023/08/13 08:11:32;;;;;;;7.05;3.35;;;20.30;99.90;;;;;;5029643;28;20091;-60
2023/08/13 08:13:58;;;;;;;11.43;2.90;;;20.40;99.90;;;;;;5031390;28;20044;-60
2023/08/13 08:16:23;;;;;;;8.05;2.55;;;20.40;99.90;;;;;;5034328;28;20037;-60
2023/08/13 08:18:49;;;;;;;17.10;8.20;;;20.50;99.90;;;;;;5028225;28;20405;-60
2023/08/13 08:21:14;;;;;;;15.20;5.78;;;20.50;99.90;;;;;;5032028;28;20116;-59
2023/08/13 08:23:40;;;;;;;9.65;3.10;;;20.60;99.90;;;;;;5032476;28;20017;-58
2023/08/13 08:26:07;;;;;;;9.90;3.17;;;20.60;99.90;;;;;;5031704;28;20041;-60
2023/08/13 08:28:33;;;;;;;7.35;2.85;;;20.60;99.90;;;;;;5030310;28;20029;-57
2023/08/13 08:30:58;;;;;;;15.70;3.00;;;20.70;99.90;;;;;;5020828;28;20083;-60
2023/08/13 08:33:24;;;;;;;6.95;2.90;;;20.80;99.90;;;;;;5027570;28;20474;-60
2023/08/13 08:35:50;;;;;;;10.25;2.47;;;20.80;99.90;;;;;;5024968;28;20032;-59
2023/08/13 08:38:15;;;;;;;11.63;3.53;;;20.90;99.90;;;;;;5029082;28;20446;-59
2023/08/13 08:40:47;;;;;;;11.82;3.53;;;21.00;99.90;;;;;;5035261;28;20063;-61
2023/08/13 08:43:13;;;;;;;11.80;3.10;;;21.20;99.90;;;;;;5023451;28;20017;-61
2023/08/13 08:45:40;;;;;;;10.02;3.08;;;21.30;99.90;;;;;;5028500;28;20108;-60
2023/08/13 08:48:06;;;;;;;20.98;4.18;;;21.40;99.90;;;;;;5032757;28;20100;-59
2023/08/13 08:50:35;;;;;;;11.52;2.85;;;21.50;99.90;;;;;;5029521;28;20025;-58
2023/08/13 08:53:01;;;;;;;12.48;3.10;;;21.40;99.90;;;;;;5030387;28;20018;-59
2023/08/13 08:55:27;;;;;;;10.43;2.85;;;21.50;99.90;;;;;;5031354;28;20482;-60
2023/08/13 08:57:54;;;;;;;9.50;2.75;;;21.60;99.90;;;;;;5032333;28;20025;-60
2023/08/13 09:00:20;;;;;;;12.07;3.05;;;21.60;99.90;;;;;;5025009;28;20125;-60
2023/08/13 09:02:45;;;;;;;10.95;3.28;;;21.60;99.90;;;;;;5027065;28;20036;-60
2023/08/13 09:05:11;;;;;;;9.05;2.65;;;21.60;99.90;;;;;;5024058;28;20611;-60
2023/08/13 09:07:40;;;;;;;12.77;3.42;;;21.80;99.90;;;;;;5023370;28;20021;-59
2023/08/13 09:10:06;;;;;;;10.55;3.08;;;21.90;99.90;;;;;;5025154;28;20091;-59
2023/08/13 09:12:40;;;;;;;7.05;3.25;;;22.00;99.90;;;;;;5025360;28;20030;-58
2023/08/13 09:15:08;;;;;;;13.77;2.67;;;22.10;99.90;;;;;;5025232;28;20842;-58
2023/08/13 09:17:34;;;;;;;8.52;2.08;;;22.20;99.90;;;;;;5029720;28;20041;-58
2023/08/13 09:20:07;;;;;;;7.53;2.88;;;22.30;99.90;;;;;;5035307;28;20036;-57
2023/08/13 09:22:34;;;;;;;7.90;2.45;;;22.40;99.90;;;;;;5025923;28;20034;-59
2023/08/13 09:25:02;;;;;;;14.32;2.47;;;22.50;99.90;;;;;;5031531;28;20029;-58
2023/08/13 09:27:27;;;;;;;6.78;1.85;;;22.50;99.90;;;;;;5031441;28;20033;-60
2023/08/13 09:29:53;;;;;;;12.75;2.63;;;22.30;99.90;;;;;;5038197;28;20040;-61
2023/08/13 09:32:20;;;;;;;5.60;2.47;;;22.20;99.90;;;;;;5029527;28;20116;-60
2023/08/13 09:34:45;;;;;;;10.13;3.00;;;22.20;99.90;;;;;;5028274;28;20100;-59
2023/08/13 09:37:11;;;;;;;6.38;2.40;;;22.10;99.90;;;;;;5023479;28;20113;-61
2023/08/13 09:39:36;;;;;;;7.35;2.10;;;22.20;99.90;;;;;;5026691;28;20112;-59
2023/08/13 09:42:05;;;;;;;8.85;1.95;;;22.30;99.90;;;;;;5025531;28;20134;-62
2023/08/13 09:44:31;;;;;;;11.68;2.85;;;22.50;99.90;;;;;;5028747;28;20052;-60
2023/08/13 09:47:06;;;;;;;7.40;2.17;;;22.80;99.90;;;;;;5026716;28;20134;-58
2023/08/13 09:49:33;;;;;;;8.35;2.20;;;23.00;99.90;;;;;;5031922;28;20444;-61
2023/08/13 09:52:09;;;;;;;8.63;1.88;;;23.00;99.90;;;;;;5025490;28;20034;-58
2023/08/13 09:54:47;;;;;;;12.70;2.60;;;23.10;99.90;;;;;;5023644;28;20024;-58
2023/08/13 09:57:15;;;;;;;11.05;2.42;;;23.10;99.90;;;;;;5024044;28;20031;-60
2023/08/13 09:59:41;;;;;;;7.55;1.95;;;23.20;99.90;;;;;;5027039;28;20033;-56
2023/08/13 10:02:08;;;;;;;6.78;2.08;;;23.30;99.90;;;;;;5027824;28;20036;-54
2023/08/13 10:04:35;;;;;;;11.23;2.70;;;23.40;99.90;;;;;;5035502;28;20029;-57
2023/08/13 10:07:01;;;;;;;5.38;1.83;;;23.40;99.90;;;;;;5030029;28;21066;-58
2023/08/13 10:09:28;;;;;;;8.80;2.15;;;23.70;99.90;;;;;;5028198;28;20026;-59
2023/08/13 10:11:54;;;;;;;10.48;2.30;;;23.80;99.90;;;;;;5026892;28;20028;-57
2023/08/13 10:14:20;;;;;;;9.45;2.33;;;24.00;99.90;;;;;;5023437;28;20052;-59
2023/08/13 10:16:46;;;;;;;8.05;2.08;;;24.10;99.90;;;;;;5026511;28;20089;-60
2023/08/13 10:19:13;;;;;;;6.30;2.45;;;24.20;99.90;;;;;;5023801;28;20118;-54
2023/08/13 10:21:39;;;;;;;10.48;2.72;;;24.30;99.90;;;;;;5031690;28;20028;-56
2023/08/13 10:24:10;;;;;;;9.57;2.33;;;24.10;99.90;;;;;;5029861;28;20042;-58
2023/08/13 10:26:35;;;;;;;13.27;2.70;;;24.20;99.90;;;;;;5039533;28;20100;-58
2023/08/13 10:29:15;;;;;;;4.70;1.88;;;24.10;99.90;;;;;;5031195;28;20419;-59
2023/08/13 10:31:48;;;;;;;9.77;2.35;;;24.00;99.90;;;;;;5036017;28;20389;-60
2023/08/13 10:34:16;;;;;;;12.15;2.60;;;24.00;99.90;;;;;;5024758;28;20119;-53
2023/08/13 10:36:54;;;;;;;9.25;2.63;;;24.00;99.90;;;;;;5028136;28;20087;-59
2023/08/13 10:39:57;;;;;;;4.72;2.05;;;23.90;99.90;;;;;;5032523;28;20021;-54
2023/08/13 10:42:34;;;;;;;11.45;2.75;;;23.80;99.90;;;;;;5027668;28;20091;-60
2023/08/13 10:45:05;;;;;;;11.60;2.95;;;23.80;99.90;;;;;;5035215;28;20056;-60
2023/08/13 10:48:00;;;;;;;10.45;2.47;;;23.60;99.90;;;;;;5033707;28;20110;-59
2023/08/13 10:50:34;;;;;;;;;;;23.50;99.90;;;;;;5024009;28;20087;-59
2023/08/13 10:53:06;;;;;;;7.93;2.50;;;23.50;99.90;;;;;;5026675;28;19986;-53
2023/08/13 10:55:38;;;;;;;9.95;2.70;;;23.60;99.90;;;;;;5026319;28;20029;-60
2023/08/13 10:58:04;;;;;;;7.25;2.40;;;23.70;99.90;;;;;;5028594;28;20033;-58
2023/08/13 11:00:29;;;;;;;6.32;2.03;;;23.50;99.90;;;;;;5027505;28;20021;-58
2023/08/13 11:03:15;;;;;;;10.40;2.47;;;23.60;99.90;;;;;;5033510;28;20026;-56
2023/08/13 11:05:42;;;;;;;10.75;2.58;;;23.70;99.90;;;;;;5030786;28;20029;-61
2023/08/13 11:08:08;;;;;;;8.95;2.85;;;23.70;99.90;;;;;;5028668;28;20030;-56
2023/08/13 11:10:34;;;;;;;10.77;2.50;;;23.60;99.90;;;;;;5026149;28;20109;-60
2023/08/13 11:13:00;;;;;;;8.50;2.58;;;23.60;99.90;;;;;;5036414;28;20040;-56
2023/08/13 11:15:28;;;;;;;11.20;2.80;;;23.70;99.90;;;;;;5029797;28;20045;-55
2023/08/13 11:17:54;;;;;;;7.05;2.70;;;23.90;99.90;;;;;;5026316;28;20029;-60
2023/08/13 11:20:19;;;;;;;11.15;2.70;;;24.00;99.90;;;;;;5031794;28;20489;-57
2023/08/13 11:22:46;;;;;;;10.82;2.65;;;24.10;99.90;;;;;;5034715;28;20025;-58
2023/08/13 11:25:13;;;;;;;11.07;2.63;;;24.10;99.90;;;;;;5032727;28;20053;-59
2023/08/13 11:27:39;;;;;;;12.23;2.80;;;24.30;99.90;;;;;;5034752;28;20025;-60
2023/08/13 11:30:07;;;;;;;12.40;3.38;;;24.50;99.90;;;;;;5026104;28;21194;-59
2023/08/13 11:32:37;;;;;;;9.73;2.63;;;24.50;99.90;;;;;;5028405;28;20059;-60
2023/08/13 11:35:09;;;;;;;10.73;2.90;;;24.50;99.90;;;;;;5018499;28;20939;-59
2023/08/13 11:37:36;;;;;;;12.07;3.00;;;24.40;99.90;;;;;;5026321;28;20116;-59
2023/08/13 11:40:03;;;;;;;7.18;2.30;;;24.40;99.90;;;;;;5030583;28;20177;-56
2023/08/13 11:42:31;;;;;;;6.28;2.67;;;24.10;99.90;;;;;;5027385;28;20036;-59
2023/08/13 11:44:56;;;;;;;10.88;2.85;;;23.90;99.90;;;;;;5029100;28;20374;-59
2023/08/13 11:47:28;;;;;;;9.85;2.45;;;23.90;99.90;;;;;;5026812;28;20032;-59
2023/08/13 11:49:58;;;;;;;7.60;2.28;;;24.00;99.90;;;;;;5030184;28;20029;-58
2023/08/13 11:52:24;;;;;;;9.10;2.63;;;24.10;99.90;;;;;;5030645;28;20166;-60
2023/08/13 11:54:51;;;;;;;18.33;2.63;;;24.30;99.90;;;;;;5032105;28;20151;-59
2023/08/13 11:57:18;;;;;;;11.00;2.28;;;24.40;99.90;;;;;;5027484;28;21129;-59
2023/08/13 11:59:47;;;;;;;7.55;2.38;;;24.60;99.90;;;;;;5026437;28;20036;-57
2023/08/13 12:02:13;;;;;;;8.75;2.40;;;24.60;99.90;;;;;;5025056;28;20033;-59
2023/08/13 12:04:39;;;;;;;8.18;2.22;;;24.80;99.90;;;;;;5032479;28;20045;-56
2023/08/13 12:07:09;;;;;;;9.70;2.50;;;24.90;99.90;;;;;;5027140;28;20696;-60
2023/08/13 12:09:34;;;;;;;8.45;2.47;;;25.00;99.90;;;;;;5024871;28;20392;-56
2023/08/13 12:12:00;;;;;;;9.02;2.80;;;25.20;99.90;;;;;;5027825;28;20032;-55
2023/08/13 12:14:25;;;;;;;5.47;2.60;;;25.40;99.90;;;;;;5028684;28;20607;-60
2023/08/13 12:16:51;;;;;;;9.73;2.83;;;25.30;99.90;;;;;;5027491;28;20033;-60
2023/08/13 12:19:16;;;;;;;10.07;2.78;;;25.60;99.90;;;;;;5024705;28;20038;-57
2023/08/13 12:21:42;;;;;;;9.27;2.50;;;25.60;99.90;;;;;;5028896;28;20022;-53
2023/08/13 12:24:08;;;;;;;5.40;2.95;;;25.50;99.90;;;;;;5029437;28;20393;-56
2023/08/13 12:26:33;;;;;;;7.78;2.60;;;25.40;99.90;;;;;;5025390;28;20076;-57
2023/08/13 12:28:59;;;;;;;8.10;2.47;;;25.50;99.90;;;;;;5026176;28;20884;-57
2023/08/13 12:31:26;;;;;;;6.53;1.95;;;25.60;99.90;;;;;;5027807;28;20603;-57
2023/08/13 12:33:53;;;;;;;7.78;1.90;;;25.50;99.90;;;;;;5027044;28;20525;-59
2023/08/13 12:36:19;;;;;;;5.57;1.48;;;25.50;99.90;;;;;;5027640;28;20029;-57
2023/08/13 12:38:44;;;;;;;7.40;1.48;;;25.70;99.90;;;;;;5031274;28;20559;-56